createdAt,value
2023-07-18T00:02:13.366Z,65.03
2023-07-18T00:04:41.408Z,65.82
2023-07-18T00:07:08.777Z,66.27
2023-07-18T00:09:38.637Z,65.96
2023-07-18T00:12:10.032Z,66.42
2023-07-18T00:14:39.660Z,67.36
2023-07-18T00:17:12.375Z,66.74
2023-07-18T00:19:41.332Z,68.24
2023-07-18T00:22:09.009Z,69.06
2023-07-18T00:24:39.625Z,68.02
2023-07-18T00:27:07.756Z,69.16
2023-07-18T00:29:35.239Z,69.31
2023-07-18T00:32:08.516Z,70.25
2023-07-18T00:34:36.798Z,69.35
2023-07-18T00:37:04.299Z,70.18
2023-07-18T00:39:31.315Z,70.21
2023-07-18T00:42:01.746Z,69.62
2023-07-18T00:44:28.752Z,69.52
2023-07-18T00:46:58.394Z,69.62
2023-07-18T00:49:26.804Z,69.72
2023-07-18T00:51:56.347Z,70.21
2023-07-18T00:54:25.568Z,70.24
2023-07-18T00:56:52.695Z,70.27
2023-07-18T00:59:21.078Z,70.19
2023-07-18T01:01:49.548Z,69.97
2023-07-18T01:04:19.626Z,71.16
2023-07-18T01:06:50.474Z,69.85
2023-07-18T01:09:23.322Z,68.83
2023-07-18T01:11:53.878Z,69.92
2023-07-18T01:14:23.142Z,70.27
2023-07-18T01:16:50.154Z,70.39
2023-07-18T01:19:16.849Z,70.11
2023-07-18T01:21:43.811Z,71.45
2023-07-18T01:24:11.314Z,71.90
2023-07-18T01:26:38.088Z,71.33
2023-07-18T01:29:05.471Z,71.94
2023-07-18T01:31:35.466Z,71.34
2023-07-18T01:34:03.994Z,70.29
2023-07-18T01:36:30.945Z,72.54
2023-07-18T01:38:58.485Z,70.43
2023-07-18T01:41:25.299Z,69.84
2023-07-18T01:43:51.893Z,70.52
2023-07-18T01:46:18.647Z,70.77
2023-07-18T01:48:45.386Z,71.29
2023-07-18T01:51:12.189Z,70.73
2023-07-18T01:53:39.085Z,71.36
2023-07-18T01:56:07.214Z,71.12
2023-07-18T01:58:35.017Z,71.42
2023-07-18T02:01:07.274Z,70.76
2023-07-18T02:03:34.683Z,72.24
2023-07-18T02:06:04.397Z,71.55
2023-07-18T02:08:31.270Z,72.14
2023-07-18T02:10:59.953Z,72.83
2023-07-18T02:13:26.595Z,72.03
2023-07-18T02:15:53.199Z,72.23
2023-07-18T02:18:20.148Z,71.58
2023-07-18T02:20:47.145Z,71.43
2023-07-18T02:23:13.901Z,71.71
2023-07-18T02:25:40.728Z,72.29
2023-07-18T02:28:08.804Z,71.95
2023-07-18T02:30:36.465Z,72.63
2023-07-18T02:33:06.273Z,72.04
2023-07-18T02:35:33.064Z,71.37
2023-07-18T02:38:00.033Z,72.17
2023-07-18T02:40:26.669Z,71.85
2023-07-18T02:42:53.417Z,72.44
2023-07-18T02:45:21.380Z,72.88
2023-07-18T02:47:48.056Z,73.17
2023-07-18T02:50:14.786Z,72.98
2023-07-18T02:52:41.500Z,73.20
2023-07-18T02:55:08.825Z,73.54
2023-07-18T02:57:37.213Z,73.47
2023-07-18T03:00:07.893Z,72.77
2023-07-18T03:02:35.586Z,73.07
2023-07-18T03:05:03.197Z,73.33
2023-07-18T03:07:29.902Z,74.24
2023-07-18T03:09:56.938Z,74.06
2023-07-18T03:12:23.663Z,73.96
2023-07-18T03:14:51.032Z,73.73
2023-07-18T03:17:18.122Z,74.22
2023-07-18T03:19:44.860Z,73.61
2023-07-18T03:22:12.709Z,74.00
2023-07-18T03:24:39.505Z,73.55
2023-07-18T03:27:06.480Z,73.49
2023-07-18T03:29:33.269Z,73.74
2023-07-18T03:32:02.209Z,73.37
2023-07-18T03:34:29.886Z,73.80
2023-07-18T03:36:56.903Z,73.73
2023-07-18T03:39:23.835Z,73.12
2023-07-18T03:41:50.748Z,73.36
2023-07-18T03:44:17.407Z,73.41
2023-07-18T03:46:44.452Z,73.58
2023-07-18T03:49:11.239Z,73.32
2023-07-18T03:51:38.164Z,73.41
2023-07-18T03:54:06.936Z,73.24
2023-07-18T03:56:34.473Z,73.69
2023-07-18T03:59:01.088Z,73.63
2023-07-18T04:01:27.853Z,73.52
2023-07-18T04:03:54.717Z,73.52
2023-07-18T04:06:22.990Z,73.86
2023-07-18T04:08:49.686Z,73.85
2023-07-18T04:11:16.376Z,73.80
2023-07-18T04:13:43.062Z,73.83
2023-07-18T04:16:10.182Z,73.36
2023-07-18T04:18:38.146Z,73.24
2023-07-18T04:21:05.096Z,73.34
2023-07-18T04:23:35.069Z,73.04
2023-07-18T04:26:04.215Z,72.63
2023-07-18T04:28:35.427Z,72.07
2023-07-18T04:31:03.208Z,72.44
2023-07-18T04:33:40.674Z,72.18
2023-07-18T04:36:08.776Z,72.33
2023-07-18T04:38:36.224Z,72.42
2023-07-18T04:41:06.484Z,71.95
2023-07-18T04:43:33.222Z,71.77
2023-07-18T04:46:00.114Z,71.22
2023-07-18T04:48:27.216Z,70.96
2023-07-18T04:50:59.508Z,70.79
2023-07-18T04:53:30.970Z,70.97
2023-07-18T04:55:58.179Z,68.86
2023-07-18T04:58:26.529Z,63.37
2023-07-18T05:00:56.525Z,59.75
2023-07-18T05:03:24.066Z,55.86
2023-07-18T05:05:50.834Z,55.66
2023-07-18T05:08:18.355Z,53.94
2023-07-18T05:10:48.693Z,52.52
2023-07-18T05:13:15.424Z,51.50
2023-07-18T05:15:43.337Z,50.70
2023-07-18T05:18:21.650Z,49.24
2023-07-18T05:20:55.021Z,49.61
2023-07-18T05:23:22.025Z,49.11
2023-07-18T05:25:52.011Z,48.10
2023-07-18T05:28:24.536Z,46.70
2023-07-18T05:30:51.399Z,46.25
2023-07-18T05:33:18.525Z,45.74
2023-07-18T05:35:45.312Z,45.60
2023-07-18T05:38:11.922Z,44.40
2023-07-18T05:40:40.962Z,44.29
2023-07-18T05:43:07.894Z,43.66
2023-07-18T05:45:35.032Z,44.49
2023-07-18T05:48:01.785Z,43.81
2023-07-18T05:50:28.872Z,43.72
2023-07-18T05:52:55.687Z,42.96
2023-07-18T05:55:31.260Z,42.04
2023-07-18T05:57:58.128Z,41.39
2023-07-18T06:00:24.835Z,41.00
2023-07-18T06:02:51.912Z,39.70
2023-07-18T06:05:18.871Z,41.30
2023-07-18T06:07:45.854Z,40.73
2023-07-18T06:10:38.059Z,38.61
2023-07-18T06:13:11.955Z,39.43
2023-07-18T06:15:40.912Z,39.41
2023-07-18T06:18:23.539Z,40.24
2023-07-18T06:20:51.194Z,40.52
2023-07-18T06:26:18.896Z,39.46
2023-07-18T06:28:45.624Z,40.42
2023-07-18T06:31:27.378Z,39.87
2023-07-18T06:33:54.857Z,39.26
2023-07-18T06:36:24.982Z,38.84
2023-07-18T06:38:51.924Z,38.49
2023-07-18T06:41:19.668Z,38.35
2023-07-18T06:43:47.256Z,38.76
2023-07-18T06:46:26.804Z,37.97
2023-07-18T06:48:58.940Z,37.76
2023-07-18T06:51:30.575Z,39.04
2023-07-18T06:53:57.765Z,38.27
2023-07-18T06:56:24.656Z,37.67
2023-07-18T06:58:51.508Z,38.81
2023-07-18T07:01:18.606Z,39.96
2023-07-18T07:03:46.064Z,39.31
2023-07-18T07:06:14.754Z,38.06
2023-07-18T07:08:41.962Z,40.13
2023-07-18T07:11:09.600Z,40.83
2023-07-18T07:13:37.613Z,40.06
2023-07-18T07:16:06.624Z,39.32
2023-07-18T07:18:34.487Z,38.99
2023-07-18T07:21:01.696Z,38.82
2023-07-18T07:27:41.781Z,37.57
2023-07-18T07:44:23.797Z,37.67
2023-07-18T08:05:45.236Z,35.11
2023-07-18T08:29:32.187Z,33.97
2023-07-18T10:06:45.044Z,34.34
2023-07-18T10:09:12.174Z,33.86
2023-07-18T10:12:01.542Z,34.73
2023-07-18T10:14:37.159Z,34.57
2023-07-18T10:17:09.078Z,34.81
2023-07-18T10:19:49.744Z,35.22
2023-07-18T10:22:28.071Z,35.14
2023-07-18T10:25:14.395Z,34.76
2023-07-18T10:27:50.927Z,35.35
2023-07-18T10:30:20.308Z,33.46
2023-07-18T10:35:58.902Z,32.73
2023-07-18T10:38:35.882Z,32.18
2023-07-18T10:41:02.955Z,32.83
2023-07-18T10:43:32.894Z,32.70
2023-07-18T10:46:07.572Z,31.22
2023-07-18T10:48:34.564Z,31.86
2023-07-18T10:51:01.674Z,32.21
2023-07-18T10:53:29.580Z,32.66
2023-07-18T10:55:58.961Z,31.76
2023-07-18T10:58:26.149Z,31.24
2023-07-18T11:01:02.735Z,31.53
2023-07-18T11:03:32.524Z,32.25
2023-07-18T11:10:36.349Z,31.13
2023-07-18T11:13:03.622Z,31.18
2023-07-18T11:15:30.737Z,31.63
2023-07-18T11:17:57.756Z,31.14
2023-07-18T11:20:32.726Z,30.98
2023-07-18T11:23:02.959Z,30.73
2023-07-18T11:25:30.196Z,30.10
2023-07-18T11:27:57.054Z,29.84
2023-07-18T11:30:35.124Z,29.84
2023-07-18T11:33:13.492Z,29.60
2023-07-18T11:44:23.932Z,28.70
2023-07-18T11:47:11.412Z,29.88
2023-07-18T11:49:38.432Z,30.40
2023-07-18T11:52:13.748Z,29.62
2023-07-18T13:00:11.429Z,29.62
2023-07-18T13:07:18.344Z,28.88
2023-07-18T13:14:05.788Z,27.54
2023-07-18T13:16:41.618Z,27.82
2023-07-18T13:19:56.667Z,27.93
2023-07-18T13:23:34.628Z,29.29
2023-07-18T13:40:53.214Z,28.57
2023-07-18T14:44:39.319Z,28.59
2023-07-18T14:47:56.583Z,28.20
2023-07-18T15:46:46.704Z,27.77
2023-07-18T16:45:09.586Z,28.70
2023-07-18T16:48:03.030Z,29.30
2023-07-18T17:32:14.787Z,29.21
2023-07-18T17:35:15.541Z,29.82
2023-07-18T17:37:45.716Z,29.74
2023-07-18T17:40:13.029Z,29.99
2023-07-18T17:46:21.810Z,30.43
2023-07-18T17:49:09.967Z,30.84
2023-07-18T17:54:40.449Z,31.75
2023-07-18T17:57:11.372Z,31.26
2023-07-18T17:59:51.288Z,31.90
2023-07-18T18:02:29.571Z,34.42
2023-07-18T18:08:59.916Z,33.74
2023-07-18T18:11:44.128Z,33.30
2023-07-18T18:14:46.007Z,33.78
2023-07-18T18:17:13.260Z,34.28
2023-07-18T18:19:40.570Z,35.03
2023-07-18T18:25:10.171Z,34.08
2023-07-18T18:31:06.430Z,36.55
2023-07-18T18:38:07.350Z,41.64
2023-07-18T18:40:59.773Z,41.84
2023-07-18T18:44:23.720Z,41.73
2023-07-18T18:46:57.649Z,41.47
2023-07-18T18:52:53.827Z,44.27
2023-07-18T19:01:57.380Z,46.74
2023-07-18T19:04:38.378Z,46.44
2023-07-18T19:07:46.733Z,46.58
2023-07-18T19:11:08.182Z,46.39
2023-07-18T19:16:16.801Z,46.38
2023-07-18T19:18:18.998Z,47.09
2023-07-18T19:20:49.987Z,46.76
2023-07-18T19:23:41.914Z,47.03
2023-07-18T19:26:16.852Z,46.71
2023-07-18T19:28:43.991Z,47.25
2023-07-18T19:31:14.147Z,47.69
2023-07-18T19:33:56.753Z,47.67
2023-07-18T19:36:23.693Z,47.99
2023-07-18T20:20:28.868Z,48.69
2023-07-18T20:26:23.167Z,48.61
2023-07-18T20:29:37.988Z,49.84
2023-07-18T20:35:32.949Z,50.64
2023-07-18T20:38:00.675Z,50.21
2023-07-18T20:40:52.591Z,50.90
2023-07-18T20:43:22.487Z,50.74
2023-07-18T20:45:57.971Z,50.61
2023-07-18T20:48:25.911Z,50.27
2023-07-18T20:50:53.063Z,50.74
2023-07-18T20:53:21.020Z,50.34
2023-07-18T20:58:53.649Z,50.21
2023-07-18T21:01:22.208Z,50.52
2023-07-18T21:03:50.917Z,49.96
2023-07-18T21:06:21.782Z,50.03
2023-07-18T21:08:54.541Z,50.19
2023-07-18T21:11:21.857Z,49.91
2023-07-18T21:13:50.725Z,50.02
2023-07-18T21:16:17.730Z,50.18
2023-07-18T21:18:53.670Z,49.80
2023-07-18T21:21:20.815Z,49.82
2023-07-18T21:23:47.641Z,49.75
2023-07-18T21:26:17.614Z,49.77
2023-07-18T21:29:02.058Z,49.81
2023-07-18T21:31:31.161Z,50.36
2023-07-18T22:45:17.093Z,51.82
2023-07-18T22:47:44.347Z,52.14
2023-07-18T22:50:11.513Z,52.13
2023-07-18T22:52:38.268Z,52.35
2023-07-18T22:55:07.085Z,52.58
2023-07-18T22:57:33.886Z,53.04
2023-07-18T23:00:00.722Z,53.14
2023-07-18T23:02:27.799Z,53.32
2023-07-18T23:04:54.634Z,53.69
2023-07-18T23:07:22.446Z,54.23
2023-07-18T23:09:52.338Z,54.50
2023-07-18T23:12:22.186Z,55.28
2023-07-18T23:14:49.121Z,54.98
2023-07-18T23:17:15.870Z,55.46
2023-07-18T23:19:43.208Z,55.00
2023-07-18T23:22:10.523Z,54.93
2023-07-18T23:27:48.822Z,54.98
2023-07-18T23:30:36.140Z,56.53
2023-07-18T23:33:29.518Z,57.48
2023-07-18T23:36:13.564Z,56.17
2023-07-18T23:38:40.692Z,56.58
2023-07-18T23:41:15.976Z,56.92
2023-07-18T23:43:42.775Z,56.09
2023-07-18T23:46:15.043Z,57.38
2023-07-18T23:48:41.906Z,56.89
2023-07-18T23:51:08.904Z,56.88
2023-07-18T23:53:37.018Z,56.34
2023-07-18T23:56:03.862Z,56.62
2023-07-18T23:58:30.718Z,57.18
